Time;durP1;ratioP1;P1;durP2;ratioP2;P2;SDS_P1;SDS_P2;PMS_P1;PMS_P2;Temp;Humidity;BMP_temperature;BMP_pressure;BME280_temperature;BME280_humidity;BME280_pressure;Samples;Min_cycle;Max_cycle;Signal;HPM_P1;HPM_P2
2023/08/17 00:01:56;;;;;;;;;11.00;11.00;;;;;;;;5039231;28;45785;-80
2023/08/17 00:04:22;;;;;;;;;12.00;10.00;;;;;;;;5046835;28;46376;-80
2023/08/17 00:06:47;;;;;;;;;16.67;13.00;;;;;;;;5055630;28;45756;-81
2023/08/17 00:09:12;;;;;;;;;13.67;12.33;;;;;;;;5047997;28;45418;-79
2023/08/17 00:11:38;;;;;;;;;13.33;11.00;;;;;;;;5052278;28;44822;-78
2023/08/17 00:14:03;;;;;;;;;17.00;16.67;;;;;;;;5056370;28;45380;-80
2023/08/17 00:16:29;;;;;;;;;13.33;12.00;;;;;;;;5040722;28;45555;-78
2023/08/17 00:18:54;;;;;;;;;14.67;11.33;;;;;;;;5043000;28;45592;-78
2023/08/17 00:21:19;;;;;;;;;13.00;13.00;;;;;;;;5038801;28;46348;-79
2023/08/17 00:23:44;;;;;;;;;14.67;13.33;;;;;;;;5039107;28;45779;-78
2023/08/17 00:26:10;;;;;;;;;16.33;13.33;;;;;;;;5055266;28;45473;-79
2023/08/17 00:28:35;;;;;;;;;13.67;12.00;;;;;;;;5046800;28;45592;-80
2023/08/17 00:31:01;;;;;;;;;10.67;10.67;;;;;;;;5042596;28;45713;-80
2023/08/17 00:33:26;;;;;;;;;12.00;10.33;;;;;;;;5032871;28;45644;-79
2023/08/17 00:35:51;;;;;;;;;13.67;11.67;;;;;;;;5045121;28;45490;-79
2023/08/17 00:38:16;;;;;;;;;13.00;11.00;;;;;;;;5055614;28;45700;-78
2023/08/17 00:40:42;;;;;;;;;13.33;10.67;;;;;;;;5045277;28;45740;-79
2023/08/17 00:43:07;;;;;;;;;12.33;11.33;;;;;;;;5041954;28;45921;-79
2023/08/17 00:45:32;;;;;;;;;13.00;11.67;;;;;;;;5036398;28;45656;-80
2023/08/17 00:47:58;;;;;;;;;13.67;12.00;;;;;;;;5050447;28;45749;-78
2023/08/17 00:50:24;;;;;;;;;8.00;7.67;;;;;;;;5044157;28;45511;-80
2023/08/17 00:52:51;;;;;;;;;10.33;10.33;;;;;;;;5019732;28;47418;-79
2023/08/17 00:55:16;;;;;;;;;14.67;12.33;;;;;;;;5053133;28;45531;-78
2023/08/17 00:57:42;;;;;;;;;11.00;11.00;;;;;;;;5045683;28;45406;-79
2023/08/17 01:00:08;;;;;;;;;9.67;9.67;;;;;;;;5054068;28;45407;-79
2023/08/17 01:02:34;;;;;;;;;16.67;12.33;;;;;;;;5050392;28;46437;-79
2023/08/17 01:05:00;;;;;;;;;11.67;11.67;;;;;;;;5054625;28;45652;-77
2023/08/17 01:07:25;;;;;;;;;12.67;12.67;;;;;;;;5053994;28;45720;-77
2023/08/17 01:09:50;;;;;;;;;12.33;12.33;;;;;;;;5026192;28;46050;-78
2023/08/17 01:12:23;;;;;;;;;16.67;12.67;;;;;;;;5034187;28;47499;-79
2023/08/17 01:14:48;;;;;;;;;14.33;13.33;;;;;;;;5049025;28;45778;-77
2023/08/17 01:17:26;;;;;;;;;12.33;11.67;;;;;;;;5037413;28;45661;-78
2023/08/17 01:19:52;;;;;;;;;21.67;16.00;;;;;;;;5045965;28;45873;-79
2023/08/17 01:22:20;;;;;;;;;18.33;12.67;;;;;;;;5054617;28;45715;-80
2023/08/17 01:24:46;;;;;;;;;15.67;14.67;;;;;;;;5043416;28;45930;-79
2023/08/17 01:27:11;;;;;;;;;16.33;13.33;;;;;;;;5030172;28;45782;-80
2023/08/17 01:29:37;;;;;;;;;18.67;16.00;;;;;;;;5014801;28;45835;-78
2023/08/17 01:32:28;;;;;;;;;13.33;13.00;;;;;;;;5046879;28;46757;-78
2023/08/17 01:34:59;;;;;;;;;15.00;14.33;;;;;;;;5015220;28;45766;-78
2023/08/17 01:37:28;;;;;;;;;17.33;16.33;;;;;;;;5046800;28;45433;-79
2023/08/17 01:39:55;;;;;;;;;20.33;18.67;;;;;;;;5020774;28;46115;-79
2023/08/17 01:42:20;;;;;;;;;17.00;17.00;;;;;;;;5051053;28;46363;-80
2023/08/17 01:44:46;;;;;;;;;19.67;17.67;;;;;;;;5053070;28;45762;-80
2023/08/17 01:47:11;;;;;;;;;20.67;19.00;;;;;;;;5026849;28;45863;-78
2023/08/17 01:49:36;;;;;;;;;19.33;16.33;;;;;;;;5024518;28;46172;-78
2023/08/17 01:52:02;;;;;;;;;19.33;17.00;;;;;;;;5026653;28;46527;-79
2023/08/17 01:54:27;;;;;;;;;25.00;22.00;;;;;;;;5028398;28;45418;-79
2023/08/17 01:56:53;;;;;;;;;20.67;16.33;;;;;;;;5046114;28;45661;-80
2023/08/17 01:59:18;;;;;;;;;14.33;14.33;;;;;;;;5027983;28;45730;-80
2023/08/17 02:01:44;;;;;;;;;21.33;20.33;;;;;;;;5047848;28;45746;-78
2023/08/17 02:04:09;;;;;;;;;19.00;19.00;;;;;;;;5032181;28;45889;-78
2023/08/17 02:06:35;;;;;;;;;17.00;15.33;;;;;;;;5038154;28;45740;-78
2023/08/17 02:09:00;;;;;;;;;19.67;18.67;;;;;;;;5052722;28;45740;-77
2023/08/17 02:11:26;;;;;;;;;16.67;13.67;;;;;;;;5021868;28;46797;-78
2023/08/17 02:13:52;;;;;;;;;20.00;19.67;;;;;;;;5034602;28;45709;-77
2023/08/17 02:16:17;;;;;;;;;21.33;20.33;;;;;;;;5031501;28;45372;-79
2023/08/17 02:18:42;;;;;;;;;25.00;21.50;;;;;;;;5023837;28;47219;-78
2023/08/17 02:21:09;;;;;;;;;21.00;19.00;;;;;;;;5039384;28;46933;-79
2023/08/17 02:23:34;;;;;;;;;21.67;19.67;;;;;;;;5034743;28;45752;-80
2023/08/17 02:25:59;;;;;;;;;17.67;16.67;;;;;;;;5034093;28;45455;-78
2023/08/17 02:28:24;;;;;;;;;23.33;21.33;;;;;;;;5044448;28;45870;-78
2023/08/17 02:30:54;;;;;;;;;22.33;19.00;;;;;;;;5041373;28;46038;-77
2023/08/17 02:33:20;;;;;;;;;23.67;17.33;;;;;;;;5052756;28;45684;-79
2023/08/17 02:35:47;;;;;;;;;21.67;20.33;;;;;;;;5045195;28;45813;-79
2023/08/17 02:38:13;;;;;;;;;18.67;16.67;;;;;;;;5048339;28;45809;-80
2023/08/17 02:40:38;;;;;;;;;23.00;18.67;;;;;;;;5053023;28;47032;-79
2023/08/17 02:43:03;;;;;;;;;21.33;19.33;;;;;;;;5049754;28;45441;-80
2023/08/17 02:45:28;;;;;;;;;13.33;13.33;;;;;;;;5015664;28;45558;-79
2023/08/17 02:47:53;;;;;;;;;19.67;17.00;;;;;;;;5018833;28;45597;-79
2023/08/17 02:50:19;;;;;;;;;21.33;19.33;;;;;;;;5020782;28;47233;-79
2023/08/17 02:52:44;;;;;;;;;20.33;18.00;;;;;;;;5029962;28;45703;-79
2023/08/17 02:55:10;;;;;;;;;24.67;17.67;;;;;;;;5040327;28;45601;-78
2023/08/17 02:57:35;;;;;;;;;19.67;18.33;;;;;;;;5017905;28;46933;-79
2023/08/17 03:00:00;;;;;;;;;19.00;17.00;;;;;;;;5035672;28;45563;-79
2023/08/17 03:02:25;;;;;;;;;22.67;20.67;;;;;;;;5036466;28;45647;-78
2023/08/17 03:04:51;;;;;;;;;19.00;17.33;;;;;;;;5020573;28;45794;-78
2023/08/17 03:07:16;;;;;;;;;19.67;18.67;;;;;;;;5047488;28;45369;-78
2023/08/17 03:09:41;;;;;;;;;20.67;19.00;;;;;;;;5016825;28;46585;-79
2023/08/17 03:12:07;;;;;;;;;21.33;19.33;;;;;;;;5042956;28;45767;-80
2023/08/17 03:14:32;;;;;;;;;18.00;18.00;;;;;;;;5041515;28;45514;-80
2023/08/17 03:16:57;;;;;;;;;21.33;19.67;;;;;;;;5049942;28;45555;-78
2023/08/17 03:19:23;;;;;;;;;19.33;17.33;;;;;;;;5052854;28;46418;-79
2023/08/17 03:21:49;;;;;;;;;20.00;18.67;;;;;;;;5044770;28;45550;-80
2023/08/17 03:24:14;;;;;;;;;16.67;16.67;;;;;;;;5043231;28;45742;-80
2023/08/17 03:26:39;;;;;;;;;22.00;20.00;;;;;;;;5024872;28;45630;-78
2023/08/17 03:29:04;;;;;;;;;16.67;15.00;;;;;;;;5041955;28;45644;-80
2023/08/17 03:31:30;;;;;;;;;22.67;19.00;;;;;;;;5012880;28;46164;-79
2023/08/17 03:33:55;;;;;;;;;21.33;20.67;;;;;;;;5020830;28;45782;-79
2023/08/17 03:36:20;;;;;;;;;20.33;18.33;;;;;;;;5038933;28;45847;-79
2023/08/17 03:38:46;;;;;;;;;20.67;18.67;;;;;;;;5051994;28;45673;-79
2023/08/17 03:41:11;;;;;;;;;23.67;20.67;;;;;;;;5037130;28;45380;-81
2023/08/17 03:43:37;;;;;;;;;20.33;18.67;;;;;;;;5039318;28;45329;-81
2023/08/17 03:46:04;;;;;;;;;24.00;20.33;;;;;;;;5038249;28;45730;-80
2023/08/17 03:48:29;;;;;;;;;20.67;20.67;;;;;;;;5017445;28;46604;-78
2023/08/17 03:50:56;;;;;;;;;20.67;20.67;;;;;;;;5031826;28;45802;-79
2023/08/17 03:53:21;;;;;;;;;24.00;21.00;;;;;;;;5020337;28;45808;-78
2023/08/17 03:55:47;;;;;;;;;25.00;23.33;;;;;;;;5014857;28;45799;-80
2023/08/17 03:58:12;;;;;;;;;25.00;21.67;;;;;;;;5027896;28;47047;-79
2023/08/17 04:00:39;;;;;;;;;22.67;19.67;;;;;;;;5029786;28;45835;-79
2023/08/17 04:03:04;;;;;;;;;24.33;21.33;;;;;;;;5048599;28;45860;-80
2023/08/17 04:05:29;;;;;;;;;25.67;21.33;;;;;;;;5046453;28;45465;-79
2023/08/17 04:07:54;;;;;;;;;23.33;22.33;;;;;;;;5044408;28;45922;-79
2023/08/17 04:10:20;;;;;;;;;23.67;20.67;;;;;;;;5014410;28;45727;-79
2023/08/17 04:12:47;;;;;;;;;25.67;23.67;;;;;;;;5032731;28;45775;-79
2023/08/17 04:15:12;;;;;;;;;26.00;22.33;;;;;;;;5041359;28;45297;-79
2023/08/17 04:17:37;;;;;;;;;31.00;25.67;;;;;;;;5030749;28;46379;-79
2023/08/17 04:20:04;;;;;;;;;25.33;23.67;;;;;;;;5049799;28;45863;-79
2023/08/17 04:22:29;;;;;;;;;17.67;17.67;;;;;;;;5030640;28;45625;-79
2023/08/17 04:24:55;;;;;;;;;29.33;24.33;;;;;;;;5038888;28;45522;-78
2023/08/17 04:27:20;;;;;;;;;25.33;22.33;;;;;;;;5037189;28;45786;-79
2023/08/17 04:29:46;;;;;;;;;26.67;26.67;;;;;;;;5051898;28;45982;-78
2023/08/17 04:32:15;;;;;;;;;35.33;28.67;;;;;;;;5029251;28;45943;-78
2023/08/17 04:34:41;;;;;;;;;24.33;22.00;;;;;;;;5033606;28;45325;-78
2023/08/17 04:37:06;;;;;;;;;26.67;23.33;;;;;;;;5040488;28;45448;-78
2023/08/17 04:39:32;;;;;;;;;23.00;19.33;;;;;;;;5019235;28;45851;-78
2023/08/17 04:41:58;;;;;;;;;28.33;23.67;;;;;;;;5043631;28;45684;-78
2023/08/17 04:44:23;;;;;;;;;32.67;29.33;;;;;;;;5038762;28;45528;-78
2023/08/17 04:46:48;;;;;;;;;24.00;19.67;;;;;;;;5033887;28;46447;-79
2023/08/17 04:49:14;;;;;;;;;33.33;28.00;;;;;;;;5046154;28;45289;-79
2023/08/17 04:51:39;;;;;;;;;25.67;24.33;;;;;;;;5022134;28;45557;-78
2023/08/17 04:54:04;;;;;;;;;33.33;27.33;;;;;;;;5034924;28;45372;-80
2023/08/17 04:56:29;;;;;;;;;35.33;28.33;;;;;;;;5051798;28;45708;-78
2023/08/17 04:58:55;;;;;;;;;32.67;25.67;;;;;;;;5053351;28;45833;-80
2023/08/17 05:01:20;;;;;;;;;30.00;29.00;;;;;;;;5037951;28;46000;-80
2023/08/17 05:03:45;;;;;;;;;34.67;29.00;;;;;;;;5034903;28;46116;-80
2023/08/17 05:06:11;;;;;;;;;32.00;28.67;;;;;;;;5034346;28;47338;-79
2023/08/17 05:08:37;;;;;;;;;31.33;26.00;;;;;;;;5045647;28;45790;-79
2023/08/17 05:11:02;;;;;;;;;26.33;25.00;;;;;;;;5035905;28;45766;-79
2023/08/17 05:13:28;;;;;;;;;33.67;29.67;;;;;;;;5037712;28;45779;-79
2023/08/17 05:15:53;;;;;;;;;33.33;30.33;;;;;;;;5040394;28;45800;-79
2023/08/17 05:18:18;;;;;;;;;34.67;30.00;;;;;;;;5045483;28;45906;-80
2023/08/17 05:20:43;;;;;;;;;31.33;24.67;;;;;;;;5032091;28;45931;-79
2023/08/17 05:23:09;;;;;;;;;34.33;29.67;;;;;;;;5036141;28;45721;-79
2023/08/17 05:25:34;;;;;;;;;33.00;30.00;;;;;;;;5049853;28;46233;-79
2023/08/17 05:27:59;;;;;;;;;25.67;25.67;;;;;;;;5029028;28;45876;-78
2023/08/17 05:30:24;;;;;;;;;30.67;27.33;;;;;;;;5053171;28;45541;-78
2023/08/17 05:32:50;;;;;;;;;31.33;27.33;;;;;;;;5021079;28;45385;-79
2023/08/17 05:35:15;;;;;;;;;29.00;27.00;;;;;;;;5032109;28;46419;-80
2023/08/17 05:37:40;;;;;;;;;30.33;24.67;;;;;;;;5054492;28;45800;-78
2023/08/17 05:40:06;;;;;;;;;29.00;29.00;;;;;;;;5036186;28;45797;-79
2023/08/17 05:42:31;;;;;;;;;29.67;26.00;;;;;;;;5055219;28;45529;-79
2023/08/17 05:44:57;;;;;;;;;30.00;25.67;;;;;;;;5053720;28;47017;-80
2023/08/17 05:47:23;;;;;;;;;27.67;24.33;;;;;;;;5045035;28;45406;-78
2023/08/17 05:49:49;;;;;;;;;36.33;30.00;;;;;;;;5044605;28;45770;-78
2023/08/17 05:52:15;;;;;;;;;28.67;22.67;;;;;;;;5049281;28;45756;-79
2023/08/17 05:54:40;;;;;;;;;28.67;25.67;;;;;;;;5045300;28;45459;-79
2023/08/17 05:57:05;;;;;;;;;31.00;29.00;;;;;;;;5017502;28;45705;-78
2023/08/17 05:59:32;;;;;;;;;27.00;23.00;;;;;;;;5038526;28;45826;-79
2023/08/17 06:01:57;;;;;;;;;25.33;23.00;;;;;;;;5006777;28;47003;-79
2023/08/17 06:04:23;;;;;;;;;29.33;24.33;;;;;;;;5043798;28;45484;-79
2023/08/17 06:06:48;;;;;;;;;23.00;19.67;;;;;;;;5034676;28;45465;-79
2023/08/17 06:09:16;;;;;;;;;31.67;27.67;;;;;;;;5031148;28;45668;-79
2023/08/17 06:11:41;;;;;;;;;25.67;22.67;;;;;;;;5043017;28;45418;-80
2023/08/17 06:14:07;;;;;;;;;28.67;24.33;;;;;;;;5040246;28;45807;-79
2023/08/17 06:16:32;;;;;;;;;26.00;23.67;;;;;;;;5047154;28;45880;-80
2023/08/17 06:18:58;;;;;;;;;27.67;23.33;;;;;;;;5033877;28;45847;-80
2023/08/17 06:21:23;;;;;;;;;23.67;21.00;;;;;;;;5049911;28;45737;-79
2023/08/17 06:23:48;;;;;;;;;21.33;21.00;;;;;;;;5048070;28;45831;-79
2023/08/17 06:26:13;;;;;;;;;29.00;23.00;;;;;;;;5034853;28;45788;-78
2023/08/17 06:28:39;;;;;;;;;27.67;23.33;;;;;;;;5028652;28;45416;-80
2023/08/17 06:31:04;;;;;;;;;22.25;21.25;;;;;;;;5028611;28;46005;-79
2023/08/17 06:33:29;;;;;;;;;22.67;20.33;;;;;;;;5033202;28;48044;-78
2023/08/17 06:35:55;;;;;;;;;26.00;22.00;;;;;;;;5029098;28;45541;-79
2023/08/17 06:38:20;;;;;;;;;25.00;19.67;;;;;;;;5022066;28;45546;-80
2023/08/17 06:40:50;;;;;;;;;27.00;24.33;;;;;;;;5013487;28;45940;-80
2023/08/17 06:43:15;;;;;;;;;23.00;20.67;;;;;;;;5020520;28;45388;-80
2023/08/17 06:45:41;;;;;;;;;21.00;21.00;;;;;;;;5024724;28;45503;-79
2023/08/17 06:48:06;;;;;;;;;25.00;23.67;;;;;;;;5044404;28;45570;-80
2023/08/17 06:50:31;;;;;;;;;28.33;28.33;;;;;;;;5042534;28;45919;-77
2023/08/17 06:52:57;;;;;;;;;27.00;25.33;;;;;;;;5019579;28;46938;-79
2023/08/17 06:55:22;;;;;;;;;28.00;24.33;;;;;;;;5041068;28;45493;-79
2023/08/17 06:57:49;;;;;;;;;25.33;20.67;;;;;;;;5041010;28;45456;-79
2023/08/17 07:00:15;;;;;;;;;27.67;24.33;;;;;;;;5043386;28;45560;-78
2023/08/17 07:02:40;;;;;;;;;31.33;26.00;;;;;;;;5035038;28;45871;-78
2023/08/17 07:05:05;;;;;;;;;22.67;21.00;;;;;;;;5044161;28;45807;-78
2023/08/17 07:07:34;;;;;;;;;26.00;22.67;;;;;;;;5026113;28;45474;-79
2023/08/17 07:09:59;;;;;;;;;28.33;25.67;;;;;;;;5046367;28;46036;-79
2023/08/17 07:12:24;;;;;;;;;25.00;24.00;;;;;;;;5049935;28;45631;-78
2023/08/17 07:14:50;;;;;;;;;27.67;26.33;;;;;;;;5049820;28;45770;-78
2023/08/17 07:17:16;;;;;;;;;24.67;22.67;;;;;;;;5062662;28;45614;-78
2023/08/17 07:19:41;;;;;;;;;28.67;27.33;;;;;;;;5037889;28;46232;-79
2023/08/17 07:22:07;;;;;;;;;27.33;24.67;;;;;;;;5043062;28;46499;-77
2023/08/17 07:24:32;;;;;;;;;26.67;20.67;;;;;;;;5026598;28;45664;-80
2023/08/17 07:26:57;;;;;;;;;28.00;21.67;;;;;;;;5025168;28;45419;-79
2023/08/17 07:29:23;;;;;;;;;24.00;23.00;;;;;;;;5030090;28;47409;-81
2023/08/17 07:31:48;;;;;;;;;27.33;23.00;;;;;;;;5020084;28;46986;-79
2023/08/17 07:34:13;;;;;;;;;23.00;22.33;;;;;;;;5023486;28;45466;-79
2023/08/17 07:36:38;;;;;;;;;26.33;23.67;;;;;;;;5017342;28;45755;-79
2023/08/17 07:39:04;;;;;;;;;27.67;21.33;;;;;;;;5022654;28;45955;-80
2023/08/17 07:41:30;;;;;;;;;27.00;24.33;;;;;;;;5038417;28;45446;-76
2023/08/17 07:43:55;;;;;;;;;23.00;21.67;;;;;;;;5040567;28;45690;-80
2023/08/17 07:46:21;;;;;;;;;23.67;22.67;;;;;;;;5046692;28;45900;-80
2023/08/17 07:48:46;;;;;;;;;28.00;24.67;;;;;;;;5041099;28;45876;-80
2023/08/17 07:51:11;;;;;;;;;28.67;25.00;;;;;;;;5040063;28;45727;-78
2023/08/17 07:53:37;;;;;;;;;25.67;22.33;;;;;;;;5024406;28;45954;-79
2023/08/17 07:56:02;;;;;;;;;23.33;23.33;;;;;;;;5042552;28;45769;-81
2023/08/17 07:58:27;;;;;;;;;26.67;25.33;;;;;;;;5027547;28;45793;-79
2023/08/17 08:00:53;;;;;;;;;29.67;24.67;;;;;;;;5037945;28;45438;-78
2023/08/17 08:03:18;;;;;;;;;26.67;25.00;;;;;;;;4999813;28;45554;-80
2023/08/17 08:05:43;;;;;;;;;29.67;25.00;;;;;;;;5020075;28;45506;-79
2023/08/17 08:08:08;;;;;;;;;31.67;28.33;;;;;;;;5044627;28;45478;-77
2023/08/17 08:10:34;;;;;;;;;28.33;28.00;;;;;;;;5035010;28;45764;-80
2023/08/17 08:12:59;;;;;;;;;24.67;20.67;;;;;;;;5042752;28;45571;-79
2023/08/17 08:15:24;;;;;;;;;27.67;23.67;;;;;;;;5038107;28;45445;-80
2023/08/17 08:17:49;;;;;;;;;24.00;24.00;;;;;;;;5049639;28;45786;-78
2023/08/17 08:20:15;;;;;;;;;30.00;27.33;;;;;;;;5025386;28;48074;-79
2023/08/17 08:22:40;;;;;;;;;23.00;23.00;;;;;;;;5042533;28;45486;-80
2023/08/17 08:25:05;;;;;;;;;24.67;22.67;;;;;;;;5024851;28;45380;-79
2023/08/17 08:27:30;;;;;;;;;29.33;26.33;;;;;;;;5021976;28;45726;-80
2023/08/17 08:29:56;;;;;;;;;30.00;27.00;;;;;;;;5039482;28;46691;-79
2023/08/17 08:32:21;;;;;;;;;29.33;29.33;;;;;;;;5024662;28;45649;-79
2023/08/17 08:34:46;;;;;;;;;28.67;26.67;;;;;;;;5030232;28;45650;-77
2023/08/17 08:37:12;;;;;;;;;24.00;20.33;;;;;;;;5032890;28;46913;-78
2023/08/17 08:39:50;;;;;;;;;26.00;23.67;;;;;;;;5054815;28;45763;-80
2023/08/17 08:42:16;;;;;;;;;27.00;25.67;;;;;;;;5024127;28;45822;-80
2023/08/17 08:44:41;;;;;;;;;25.00;24.33;;;;;;;;5028924;28;45820;-79
2023/08/17 08:47:07;;;;;;;;;23.33;20.67;;;;;;;;5042274;28;45511;-80
2023/08/17 08:49:34;;;;;;;;;27.00;24.33;;;;;;;;5032832;28;47046;-81
2023/08/17 08:52:00;;;;;;;;;21.67;21.00;;;;;;;;5025952;28;45620;-81
2023/08/17 08:54:26;;;;;;;;;24.67;21.67;;;;;;;;5050210;28;45526;-80
2023/08/17 08:56:59;;;;;;;;;21.67;21.00;;;;;;;;5057652;28;45415;-80
2023/08/17 08:59:24;;;;;;;;;23.00;20.67;;;;;;;;5045772;28;45787;-80
2023/08/17 09:01:49;;;;;;;;;21.00;18.33;;;;;;;;5050356;28;45427;-79
2023/08/17 09:04:15;;;;;;;;;27.33;23.00;;;;;;;;5037865;28;45558;-79
2023/08/17 09:06:42;;;;;;;;;20.33;20.00;;;;;;;;5025428;28;46013;-78
2023/08/17 09:09:08;;;;;;;;;28.00;28.00;;;;;;;;5040207;28;45573;-78
2023/08/17 09:11:34;;;;;;;;;27.33;23.00;;;;;;;;5045689;28;45722;-78
2023/08/17 09:13:59;;;;;;;;;21.00;20.00;;;;;;;;5015285;28;45359;-78
2023/08/17 09:16:24;;;;;;;;;22.67;21.33;;;;;;;;5035908;28;45570;-79
2023/08/17 09:18:52;;;;;;;;;24.67;22.67;;;;;;;;5021731;28;48415;-80
2023/08/17 09:21:23;;;;;;;;;24.00;23.00;;;;;;;;5025934;28;45762;-79
2023/08/17 09:23:53;;;;;;;;;23.33;19.67;;;;;;;;5032497;28;45427;-79
2023/08/17 09:26:19;;;;;;;;;22.00;22.00;;;;;;;;5036916;28;45490;-80
2023/08/17 09:28:44;;;;;;;;;22.00;19.00;;;;;;;;5040251;28;45853;-80
2023/08/17 09:31:11;;;;;;;;;23.00;21.67;;;;;;;;5027544;28;45465;-80
2023/08/17 09:33:36;;;;;;;;;22.33;20.00;;;;;;;;5055918;28;45747;-79
2023/08/17 09:36:02;;;;;;;;;20.00;20.00;;;;;;;;5045341;28;45625;-81
2023/08/17 09:38:27;;;;;;;;;19.33;15.67;;;;;;;;5041535;28;45548;-78
2023/08/17 09:40:53;;;;;;;;;28.00;26.00;;;;;;;;5027859;28;45428;-80
2023/08/17 09:43:23;;;;;;;;;23.33;21.33;;;;;;;;5022785;28;45352;-80
2023/08/17 09:45:51;;;;;;;;;21.33;21.00;;;;;;;;5044777;28;45388;-79
2023/08/17 09:48:17;;;;;;;;;22.33;20.33;;;;;;;;5022898;28;46530;-80
2023/08/17 09:50:43;;;;;;;;;24.67;21.00;;;;;;;;5027045;28;45933;-80
2023/08/17 09:53:12;;;;;;;;;27.33;23.67;;;;;;;;5042085;28;45450;-80
2023/08/17 09:55:39;;;;;;;;;23.00;21.67;;;;;;;;5020699;28;47601;-79
2023/08/17 09:58:04;;;;;;;;;16.50;15.00;;;;;;;;5043079;28;46364;-81
2023/08/17 10:00:30;;;;;;;;;24.33;20.00;;;;;;;;5053965;28;45794;-81
2023/08/17 10:02:57;;;;;;;;;16.67;16.67;;;;;;;;5052746;28;45450;-81
2023/08/17 10:05:22;;;;;;;;;17.33;15.67;;;;;;;;5052090;28;45436;-80
2023/08/17 10:07:51;;;;;;;;;19.33;17.00;;;;;;;;5051680;28;45441;-79
2023/08/17 10:10:25;;;;;;;;;18.33;17.00;;;;;;;;5055017;28;45745;-79
2023/08/17 10:12:59;;;;;;;;;13.33;13.33;;;;;;;;5034825;28;45466;-80
2023/08/17 10:15:25;;;;;;;;;19.00;17.67;;;;;;;;5034349;28;45735;-78
2023/08/17 10:17:58;;;;;;;;;15.75;13.50;;;;;;;;5020732;28;46464;-80
2023/08/17 10:20:26;;;;;;;;;19.00;18.33;;;;;;;;5012613;28;45696;-79
2023/08/17 10:23:06;;;;;;;;;20.33;17.00;;;;;;;;5018457;28;45494;-81
2023/08/17 10:25:32;;;;;;;;;18.00;16.67;;;;;;;;5027123;28;45687;-82
2023/08/17 10:28:00;;;;;;;;;20.25;15.50;;;;;;;;5025127;28;46474;-80
2023/08/17 10:30:25;;;;;;;;;18.00;17.00;;;;;;;;5020968;28;45739;-79
2023/08/17 10:32:50;;;;;;;;;17.00;14.75;;;;;;;;5016564;28;45436;-79
2023/08/17 10:35:16;;;;;;;;;19.33;15.67;;;;;;;;5017467;28;45761;-80
2023/08/17 10:37:41;;;;;;;;;16.00;13.50;;;;;;;;5017787;28;46717;-80
2023/08/17 10:40:07;;;;;;;;;14.00;14.00;;;;;;;;5006634;28;45544;-80
2023/08/17 10:42:33;;;;;;;;;15.67;15.67;;;;;;;;5039346;28;46064;-81
2023/08/17 10:45:01;;;;;;;;;16.75;16.00;;;;;;;;5019382;28;45664;-80
2023/08/17 10:47:31;;;;;;;;;13.33;13.33;;;;;;;;5025134;28;45648;-80
2023/08/17 10:50:03;;;;;;;;;12.50;10.25;;;;;;;;5029491;28;45415;-80
2023/08/17 10:52:32;;;;;;;;;13.00;13.00;;;;;;;;5032980;28;45346;-79
2023/08/17 10:55:02;;;;;;;;;13.50;13.50;;;;;;;;5014446;28;46424;-79
2023/08/17 10:57:37;;;;;;;;;16.00;16.00;;;;;;;;5024823;28;46179;-82
2023/08/17 11:00:10;;;;;;;;;13.25;12.00;;;;;;;;5026399;28;45867;-82
2023/08/17 11:02:37;;;;;;;;;9.25;8.75;;;;;;;;5029820;28;45470;-79
2023/08/17 11:05:03;;;;;;;;;11.00;11.00;;;;;;;;5031392;28;45399;-81
2023/08/17 11:07:38;;;;;;;;;15.00;13.67;;;;;;;;5029864;28;46369;-81
2023/08/17 11:10:10;;;;;;;;;16.75;13.00;;;;;;;;5013157;28;45535;-80
2023/08/17 11:12:35;;;;;;;;;9.00;7.75;;;;;;;;5016583;28;45506;-79
2023/08/17 11:15:01;;;;;;;;;13.00;12.75;;;;;;;;5025945;28;45786;-79
2023/08/17 11:17:27;;;;;;;;;12.25;10.75;;;;;;;;5024453;28;46823;-78
2023/08/17 11:19:52;;;;;;;;;13.75;11.00;;;;;;;;5031552;28;45841;-81
2023/08/17 11:22:17;;;;;;;;;11.00;9.25;;;;;;;;5037982;28;46088;-80
2023/08/17 11:24:43;;;;;;;;;12.00;11.75;;;;;;;;5043674;28;45400;-80
2023/08/17 11:27:09;;;;;;;;;10.25;9.00;;;;;;;;5043255;28;46259;-80
2023/08/17 11:29:37;;;;;;;;;9.75;9.75;;;;;;;;5039009;28;45835;-79
2023/08/17 11:32:04;;;;;;;;;13.00;12.50;;;;;;;;5036934;28;45759;-80
2023/08/17 11:34:29;;;;;;;;;11.75;11.50;;;;;;;;5035529;28;45739;-79
2023/08/17 11:36:56;;;;;;;;;12.75;12.75;;;;;;;;5030887;28;46194;-80
2023/08/17 11:39:21;;;;;;;;;13.75;12.00;;;;;;;;5051896;28;45362;-79
2023/08/17 11:41:48;;;;;;;;;13.00;13.00;;;;;;;;5049448;28;45285;-79
2023/08/17 11:44:14;;;;;;;;;10.25;9.75;;;;;;;;5035156;28;45750;-78
2023/08/17 11:46:40;;;;;;;;;13.75;12.50;;;;;;;;5021625;28;48315;-79
2023/08/17 11:49:05;;;;;;;;;13.00;10.25;;;;;;;;5016513;28;45948;-80
2023/08/17 11:51:34;;;;;;;;;15.00;11.00;;;;;;;;5021310;28;45397;-78
2023/08/17 11:54:00;;;;;;;;;11.00;10.00;;;;;;;;5033947;28;45633;-79
2023/08/17 11:56:25;;;;;;;;;11.75;11.00;;;;;;;;5041343;28;46730;-78
2023/08/17 11:58:50;;;;;;;;;16.67;14.33;;;;;;;;5050837;28;44896;-80
2023/08/17 12:01:15;;;;;;;;;11.00;10.25;;;;;;;;5036437;28;45454;-77
2023/08/17 12:03:41;;;;;;;;;12.75;9.25;;;;;;;;5046595;28;45829;-79
2023/08/17 12:06:06;;;;;;;;;14.00;13.00;;;;;;;;5046028;28;45589;-79
2023/08/17 12:08:33;;;;;;;;;12.50;12.25;;;;;;;;5033480;28;45852;-79
2023/08/17 12:10:58;;;;;;;;;16.00;14.00;;;;;;;;5036558;28;45511;-82
2023/08/17 12:13:34;;;;;;;;;15.00;14.00;;;;;;;;5045588;28;45305;-80
2023/08/17 12:15:59;;;;;;;;;12.50;12.50;;;;;;;;5059402;28;46034;-80
2023/08/17 12:18:25;;;;;;;;;14.00;12.50;;;;;;;;5044616;28;45776;-77
2023/08/17 12:20:54;;;;;;;;;14.67;14.00;;;;;;;;5042251;28;45682;-82
2023/08/17 12:23:19;;;;;;;;;14.25;13.00;;;;;;;;5045837;28;45571;-79
2023/08/17 12:25:44;;;;;;;;;16.50;14.50;;;;;;;;5053752;28;45514;-78
2023/08/17 12:28:12;;;;;;;;;14.75;12.25;;;;;;;;5048940;28;45851;-80
2023/08/17 12:30:37;;;;;;;;;12.33;11.33;;;;;;;;5030393;28;45770;-79
2023/08/17 12:33:03;;;;;;;;;12.50;12.50;;;;;;;;5031596;28;45803;-79
2023/08/17 12:35:29;;;;;;;;;9.00;9.00;;;;;;;;5032704;28;46774;-80
2023/08/17 12:37:55;;;;;;;;;11.00;10.25;;;;;;;;5058576;28;45749;-79
2023/08/17 12:40:21;;;;;;;;;14.75;14.00;;;;;;;;5044255;28;45320;-79
2023/08/17 12:42:46;;;;;;;;;10.75;10.25;;;;;;;;5041021;28;45467;-79
2023/08/17 12:45:12;;;;;;;;;10.75;8.00;;;;;;;;5045679;28;46093;-79
2023/08/17 12:47:38;;;;;;;;;9.50;8.25;;;;;;;;5016102;28;45459;-80
2023/08/17 12:50:03;;;;;;;;;8.50;8.50;;;;;;;;5049280;28;45813;-79
2023/08/17 12:52:28;;;;;;;;;12.00;10.67;;;;;;;;5037187;28;45722;-81
2023/08/17 12:54:54;;;;;;;;;12.00;10.50;;;;;;;;5019211;28;47194;-80
2023/08/17 12:57:19;;;;;;;;;14.50;13.00;;;;;;;;5036262;28;45447;-82
2023/08/17 12:59:45;;;;;;;;;13.50;10.00;;;;;;;;5037537;28;45661;-78
2023/08/17 13:02:11;;;;;;;;;15.50;11.50;;;;;;;;5039060;28;46086;-77
2023/08/17 13:04:36;;;;;;;;;12.75;12.00;;;;;;;;5045972;28;45246;-79
2023/08/17 13:07:01;;;;;;;;;13.00;12.50;;;;;;;;5050313;28;45364;-79
2023/08/17 13:09:27;;;;;;;;;11.50;10.25;;;;;;;;5038144;28;45592;-80
2023/08/17 13:11:52;;;;;;;;;12.75;11.00;;;;;;;;5039574;28;45445;-80
2023/08/17 13:14:17;;;;;;;;;9.00;7.50;;;;;;;;5026262;28;47061;-79
2023/08/17 13:16:42;;;;;;;;;9.00;9.00;;;;;;;;5052275;28;45394;-80
2023/08/17 13:19:08;;;;;;;;;12.75;8.50;;;;;;;;5028181;28;45735;-80
2023/08/17 13:21:33;;;;;;;;;11.25;10.25;;;;;;;;5041627;28;46489;-81
2023/08/17 13:23:58;;;;;;;;;14.25;10.50;;;;;;;;5026454;28;47806;-78
2023/08/17 13:26:24;;;;;;;;;9.25;8.50;;;;;;;;5058153;28;44721;-80
2023/08/17 13:28:49;;;;;;;;;11.25;11.00;;;;;;;;5064112;28;45694;-79
2023/08/17 13:31:14;;;;;;;;;8.25;8.00;;;;;;;;5065250;28;45466;-79
2023/08/17 13:33:39;;;;;;;;;12.00;10.75;;;;;;;;5029587;28;47196;-80
2023/08/17 13:36:05;;;;;;;;;9.50;9.50;;;;;;;;5052512;28;45529;-79
2023/08/17 13:38:31;;;;;;;;;6.50;5.50;;;;;;;;5050818;28;45395;-80
2023/08/17 13:40:56;;;;;;;;;10.00;8.00;;;;;;;;5049013;28;45669;-79
2023/08/17 13:43:21;;;;;;;;;11.50;10.25;;;;;;;;5024527;28;46977;-79
2023/08/17 13:45:47;;;;;;;;;9.00;9.00;;;;;;;;5039158;28;45611;-79
2023/08/17 13:48:12;;;;;;;;;10.25;10.25;;;;;;;;5042928;28;45427;-79
2023/08/17 13:50:38;;;;;;;;;8.25;8.25;;;;;;;;5054021;28;45388;-78
2023/08/17 13:53:03;;;;;;;;;8.50;8.50;;;;;;;;5060356;28;45281;-80
2023/08/17 13:55:29;;;;;;;;;10.00;10.00;;;;;;;;5046485;28;45485;-79
2023/08/17 13:57:55;;;;;;;;;9.50;7.50;;;;;;;;5036609;28;45799;-79
2023/08/17 14:00:20;;;;;;;;;11.25;9.75;;;;;;;;5017097;28;46490;-80
2023/08/17 14:02:46;;;;;;;;;11.00;11.00;;;;;;;;5052115;28;46210;-81
2023/08/17 14:05:11;;;;;;;;;11.00;9.25;;;;;;;;5044374;28;45544;-80
2023/08/17 14:07:36;;;;;;;;;8.50;8.50;;;;;;;;5048630;28;45419;-80
2023/08/17 14:10:02;;;;;;;;;9.25;9.25;;;;;;;;5028445;28;45353;-79
2023/08/17 14:12:27;;;;;;;;;8.00;8.00;;;;;;;;5025816;28;47742;-79